Little York, Indiana
Current Conditions -  °F | °C
As of 9:53 PM on Wednesday 22 Oct 2014 (Local Time) from KLOU Reporting Station
Clear Clear  
Wind Chill: 51°   Ceiling: Unl
Heat Index: 51°   Visibility: 10mi
Dew Point: 40°   Wind: 6mph
Humidity: 66%   Direction: 70°ENE
Pressure: 30.26"   Gusts: NA
Location:  38.7°N, 85.9°W
Report Text: KLOU 230153Z 07005KT 10SM CLR 11/04 A3026 RMK AO2 SLP249 T01060044
Loading
Personal Weather Stations






























Interactive Weather Map
Tropical Storm Tracking
New forecast layout! Learn more

10-Day Weather Forecast

Advertisements
Track Severe Weather on mobile